Time;durP1;ratioP1;P1;durP2;ratioP2;P2;SDS_P1;SDS_P2;PMS_P1;PMS_P2;Temp;Humidity;BMP_temperature;BMP_pressure;BME280_temperature;BME280_humidity;BME280_pressure;Samples;Min_cycle;Max_cycle;Signal;HPM_P1;HPM_P2
2021/12/17 00:05:10;;;;;;;45.53;16.15;;;8.70;99.90;;;;;;4929191;29;20076;-91
2021/12/17 00:07:36;;;;;;;43.90;15.90;;;8.70;99.90;;;;;;4909659;29;20043;-91
2021/12/17 00:10:07;;;;;;;36.42;14.35;;;8.80;99.90;;;;;;4905871;29;20454;-91
2021/12/17 00:12:33;;;;;;;38.78;15.32;;;8.80;99.90;;;;;;4903798;29;20032;-91
2021/12/17 00:15:01;;;;;;;44.33;17.00;;;8.70;99.90;;;;;;4901347;29;20031;-90
2021/12/17 00:17:32;;;;;;;41.88;15.23;;;8.80;99.90;;;;;;4903939;29;20095;-91
2021/12/17 00:20:15;;;;;;;42.72;15.25;;;8.80;99.90;;;;;;4906857;29;20040;-89
2021/12/17 00:52:28;;;;;;;52.35;18.50;;;8.70;99.90;;;;;;4924971;29;20504;-90
2021/12/17 00:54:54;;;;;;;52.53;17.65;;;8.70;99.90;;;;;;4904188;29;20558;-91
2021/12/17 00:57:28;;;;;;;55.08;17.85;;;8.70;99.90;;;;;;4903791;29;20027;-90
2021/12/17 00:59:55;;;;;;;47.38;16.20;;;8.70;99.90;;;;;;4904004;29;20036;-90
2021/12/17 01:02:28;;;;;;;43.45;16.38;;;8.80;99.90;;;;;;4903159;29;20157;-91
2021/12/17 01:04:58;;;;;;;38.55;14.82;;;8.70;99.90;;;;;;4903241;29;20098;-91
2021/12/17 01:07:30;;;;;;;38.08;14.55;;;8.60;99.90;;;;;;4903254;29;20107;-91
2021/12/17 01:09:56;;;;;;;41.60;14.80;;;8.70;99.90;;;;;;4903527;29;20036;-91
2021/12/17 01:12:23;;;;;;;42.28;15.63;;;8.70;99.90;;;;;;4902137;29;20549;-91
2021/12/17 01:14:50;;;;;;;42.83;14.85;;;8.70;99.90;;;;;;4902143;29;20035;-91
2021/12/17 01:17:19;;;;;;;42.33;15.63;;;8.70;99.90;;;;;;4902089;29;20107;-91
2021/12/17 01:25:15;;;;;;;41.00;14.95;;;8.70;99.90;;;;;;4920047;29;20109;-92
2021/12/17 01:35:53;;;;;;;41.28;14.98;;;8.70;99.90;;;;;;4920287;29;20047;-91
2021/12/17 01:43:54;;;;;;;49.42;15.90;;;8.70;99.90;;;;;;4920266;29;20100;-91
2021/12/17 01:46:24;;;;;;;45.50;15.35;;;8.70;99.90;;;;;;4902535;29;20040;-90
2021/12/17 01:59:58;;;;;;;42.45;14.63;;;8.60;99.90;;;;;;4920004;29;20111;-89
2021/12/17 02:02:24;;;;;;;42.63;14.27;;;8.60;99.90;;;;;;4901770;29;20319;-90
2021/12/17 02:04:50;;;;;;;43.78;14.60;;;8.70;99.90;;;;;;4902438;29;20387;-91
2021/12/17 02:07:15;;;;;;;44.25;14.35;;;8.60;99.90;;;;;;4906129;29;20048;-90
2021/12/17 02:29:08;;;;;;;32.65;12.27;;;8.70;99.90;;;;;;4912912;29;20115;-89
2021/12/17 02:31:34;;;;;;;32.83;12.60;;;8.70;99.90;;;;;;4908959;29;20394;-90
2021/12/17 02:34:07;;;;;;;32.70;12.98;;;8.60;99.90;;;;;;4903446;29;20047;-90
2021/12/17 02:36:35;;;;;;;34.05;12.45;;;8.70;99.90;;;;;;4902765;29;20111;-90
2021/12/17 02:42:33;;;;;;;32.58;12.20;;;8.70;99.90;;;;;;4908356;29;20040;-92
2021/12/17 02:47:43;;;;;;;35.33;11.27;;;8.70;99.90;;;;;;4918783;29;20084;-91
2021/12/17 02:50:10;;;;;;;28.77;11.63;;;8.70;99.90;;;;;;4902308;29;20024;-93
2021/12/17 02:52:37;;;;;;;31.83;12.60;;;8.70;99.90;;;;;;4901975;29;20119;-91
2021/12/17 02:55:07;;;;;;;35.55;12.93;;;8.70;99.90;;;;;;4901493;29;20119;-91
2021/12/17 02:57:34;;;;;;;32.35;12.20;;;8.70;99.90;;;;;;4901406;29;20028;-90
2021/12/17 03:00:03;;;;;;;35.75;12.30;;;8.70;99.90;;;;;;4902182;29;20097;-91
2021/12/17 03:02:31;;;;;;;30.88;11.93;;;8.70;99.90;;;;;;4909925;29;20020;-91
2021/12/17 03:04:58;;;;;;;35.55;12.77;;;8.70;99.90;;;;;;4910140;29;20032;-89
2021/12/17 03:07:23;;;;;;;28.45;12.57;;;8.70;99.90;;;;;;4905419;29;20115;-93
2021/12/17 03:10:06;;;;;;;32.42;12.45;;;8.70;99.90;;;;;;4912811;29;20024;-90
2021/12/17 03:15:31;;;;;;;32.45;11.80;;;8.70;99.90;;;;;;4928093;29;20042;-90
2021/12/17 03:18:37;;;;;;;30.63;11.52;;;8.70;99.90;;;;;;4902270;29;20056;-89
2021/12/17 03:23:42;;;;;;;28.30;11.32;;;8.80;99.90;;;;;;4923056;29;20074;-91
2021/12/17 03:26:18;;;;;;;32.85;11.85;;;8.70;99.90;;;;;;4901166;29;20505;-92
2021/12/17 03:28:48;;;;;;;33.13;11.73;;;8.80;99.90;;;;;;4899981;29;20059;-90
2021/12/17 03:31:15;;;;;;;30.77;10.95;;;8.80;99.90;;;;;;4904270;29;20028;-89
2021/12/17 03:33:43;;;;;;;29.60;10.85;;;8.80;99.90;;;;;;4904798;29;20070;-90
2021/12/17 03:36:11;;;;;;;30.00;11.45;;;8.70;99.90;;;;;;4904678;29;20024;-92
2021/12/17 03:38:38;;;;;;;31.10;11.18;;;8.80;99.90;;;;;;4904544;29;20024;-91
2021/12/17 03:41:51;;;;;;;28.20;9.88;;;8.80;99.90;;;;;;4904576;29;20046;-91
2021/12/17 03:43:52;;;;;;;28.60;11.63;;;8.80;99.90;;;;;;4911119;29;20129;-88
2021/12/17 03:46:18;;;;;;;31.65;11.52;;;8.80;99.90;;;;;;4904525;29;20047;-89
2021/12/17 03:48:45;;;;;;;30.27;11.10;;;8.80;99.90;;;;;;4904522;29;20088;-90
2021/12/17 03:51:14;;;;;;;29.70;11.25;;;8.80;99.90;;;;;;4904590;29;20032;-90
2021/12/17 03:53:42;;;;;;;30.08;11.38;;;8.80;99.90;;;;;;4921540;29;20028;-91
2021/12/17 03:56:08;;;;;;;30.92;11.10;;;8.80;99.90;;;;;;4904843;29;20024;-92
2021/12/17 03:58:34;;;;;;;31.05;10.73;;;8.80;99.90;;;;;;4927442;29;20088;-90
2021/12/17 04:01:00;;;;;;;33.20;12.10;;;8.80;99.90;;;;;;4923260;29;20024;-91
2021/12/17 04:03:25;;;;;;;32.25;11.82;;;8.90;99.90;;;;;;4906061;29;20039;-90
2021/12/17 04:05:51;;;;;;;38.55;13.30;;;8.80;99.90;;;;;;4905031;29;20032;-91
2021/12/17 04:08:17;;;;;;;31.73;12.88;;;8.80;99.90;;;;;;4904714;29;20549;-92
2021/12/17 04:10:47;;;;;;;32.28;12.02;;;8.80;99.90;;;;;;4904379;29;20359;-91
2021/12/17 04:13:25;;;;;;;31.75;11.85;;;8.80;99.90;;;;;;4904365;29;20040;-92
2021/12/17 04:15:56;;;;;;;36.30;13.77;;;8.80;99.90;;;;;;4921254;29;20028;-91
2021/12/17 04:18:22;;;;;;;34.10;13.02;;;8.80;99.90;;;;;;4904583;29;20020;-89
2021/12/17 04:20:48;;;;;;;33.10;12.82;;;8.80;99.90;;;;;;4904394;29;20025;-91
2021/12/17 04:23:14;;;;;;;33.50;12.55;;;8.80;99.90;;;;;;4904071;29;20492;-89
2021/12/17 04:25:40;;;;;;;32.42;13.50;;;8.80;99.90;;;;;;4903769;29;20034;-91
2021/12/17 04:28:06;;;;;;;34.05;12.30;;;8.80;99.90;;;;;;4903869;29;20066;-92
2021/12/17 04:30:32;;;;;;;30.92;11.27;;;8.80;99.90;;;;;;4904086;29;20047;-90
2021/12/17 04:32:58;;;;;;;31.02;11.38;;;8.80;99.90;;;;;;4903918;29;20486;-91
2021/12/17 04:35:23;;;;;;;31.25;10.98;;;8.80;99.90;;;;;;4903938;29;20119;-91
2021/12/17 04:37:50;;;;;;;37.55;12.93;;;8.80;99.90;;;;;;4904734;29;20035;-88
2021/12/17 04:40:18;;;;;;;33.05;12.07;;;8.80;99.90;;;;;;4903819;29;20069;-90
2021/12/17 04:42:59;;;;;;;37.15;12.20;;;8.80;99.90;;;;;;4903530;29;20032;-90
2021/12/17 04:45:25;;;;;;;34.50;12.07;;;8.80;99.90;;;;;;4903970;29;20036;-90
2021/12/17 04:58:49;;;;;;;32.25;11.85;;;8.80;99.90;;;;;;4920890;29;20509;-90
2021/12/17 05:01:16;;;;;;;30.98;11.25;;;8.80;99.90;;;;;;4920688;29;20131;-89
2021/12/17 05:03:42;;;;;;;33.65;10.95;;;8.80;99.90;;;;;;4903934;29;20183;-91
2021/12/17 05:06:08;;;;;;;34.85;11.95;;;8.70;99.90;;;;;;4903960;29;20064;-90
2021/12/17 05:08:34;;;;;;;31.30;12.10;;;8.80;99.90;;;;;;4903967;29;20035;-92
2021/12/17 05:21:48;;;;;;;27.92;9.73;;;8.70;99.90;;;;;;4891656;29;20032;-90
2021/12/17 05:24:14;;;;;;;29.45;11.23;;;8.70;99.90;;;;;;4904850;29;20040;-90
2021/12/17 05:26:40;;;;;;;29.48;10.50;;;8.70;99.90;;;;;;4903944;29;20347;-88
2021/12/17 05:29:05;;;;;;;32.33;10.68;;;8.70;99.90;;;;;;4902948;29;20043;-89
2021/12/17 05:31:31;;;;;;;29.42;10.18;;;8.70;99.90;;;;;;4902451;29;20039;-90
2021/12/17 05:33:57;;;;;;;26.98;9.75;;;8.70;99.90;;;;;;4902288;29;20032;-90
2021/12/17 05:36:22;;;;;;;29.45;11.05;;;8.70;99.90;;;;;;4903071;29;20016;-89
2021/12/17 05:38:48;;;;;;;29.73;10.57;;;8.70;99.90;;;;;;4904722;29;20040;-90
2021/12/17 05:41:14;;;;;;;29.30;10.20;;;8.70;99.90;;;;;;4903079;29;20024;-89
2021/12/17 05:43:39;;;;;;;32.15;11.00;;;8.70;99.90;;;;;;4903377;29;20032;-89
2021/12/17 05:48:33;;;;;;;24.35;10.00;;;8.70;99.90;;;;;;4919785;29;20087;-92
2021/12/17 05:51:01;;;;;;;26.75;9.95;;;8.70;99.90;;;;;;4903120;29;20024;-90
2021/12/17 05:53:28;;;;;;;30.77;9.98;;;8.60;99.90;;;;;;4902253;29;20024;-90
2021/12/17 05:55:55;;;;;;;26.38;10.20;;;8.70;99.90;;;;;;4903561;29;20024;-89
2021/12/17 05:58:20;;;;;;;29.50;10.20;;;8.70;99.90;;;;;;4903286;29;20031;-89
2021/12/17 06:00:46;;;;;;;33.08;11.20;;;8.70;99.90;;;;;;4903099;29;20032;-89
2021/12/17 06:03:12;;;;;;;31.40;11.13;;;8.70;99.90;;;;;;4912270;29;20024;-91
2021/12/17 06:05:38;;;;;;;31.02;10.75;;;8.70;99.90;;;;;;4921498;29;20035;-92
2021/12/17 06:08:04;;;;;;;28.23;10.48;;;8.70;99.90;;;;;;4910278;29;20004;-91
2021/12/17 06:10:31;;;;;;;30.83;10.45;;;8.70;99.90;;;;;;4925874;29;20019;-92
2021/12/17 06:12:57;;;;;;;29.55;10.40;;;8.70;99.90;;;;;;4925789;28;20036;-90
2021/12/17 06:15:23;;;;;;;28.08;9.43;;;8.70;99.90;;;;;;4925487;28;20052;-90
2021/12/17 06:17:50;;;;;;;32.13;10.68;;;8.70;99.90;;;;;;4925515;28;20026;-86
2021/12/17 06:20:17;;;;;;;27.13;9.95;;;8.70;99.90;;;;;;4925960;28;20020;-91
2021/12/17 06:22:43;;;;;;;33.10;10.68;;;8.70;99.90;;;;;;4925999;28;20028;-90
2021/12/17 06:25:10;;;;;;;32.30;11.15;;;8.70;99.90;;;;;;4925627;28;20024;-90
2021/12/17 06:27:36;;;;;;;30.92;11.60;;;8.70;99.90;;;;;;4925202;28;20031;-88
2021/12/17 06:30:08;;;;;;;36.58;12.00;;;8.70;99.90;;;;;;4925271;28;20056;-91
2021/12/17 06:32:34;;;;;;;34.42;12.48;;;8.70;99.90;;;;;;4941800;28;20053;-91
2021/12/17 06:35:00;;;;;;;34.83;11.30;;;8.80;99.90;;;;;;4941877;28;20036;-92
2021/12/17 06:37:26;;;;;;;31.67;11.15;;;8.70;99.90;;;;;;4924909;28;20016;-93
2021/12/17 06:39:51;;;;;;;31.27;11.55;;;8.70;99.90;;;;;;4924463;28;20017;-93
2021/12/17 06:42:18;;;;;;;34.58;11.48;;;8.70;99.90;;;;;;4925010;28;20056;-90
2021/12/17 06:44:46;;;;;;;31.02;10.68;;;8.70;99.90;;;;;;4925141;28;20145;-92
2021/12/17 06:49:57;;;;;;;35.05;12.02;;;8.70;99.90;;;;;;4938241;28;20043;-92
2021/12/17 06:55:31;;;;;;;30.38;10.68;;;8.70;99.90;;;;;;4920887;29;20088;-90
2021/12/17 07:05:59;;;;;;;31.63;10.95;;;8.70;99.90;;;;;;4923149;29;20100;-93
2021/12/17 07:10:57;;;;;;;34.90;12.10;;;8.70;99.90;;;;;;4924544;29;20138;-91
2021/12/17 07:39:54;;;;;;;34.85;12.75;;;8.70;99.90;;;;;;4925967;29;20084;-91
2021/12/17 07:42:20;;;;;;;30.17;11.27;;;8.70;99.90;;;;;;4908149;29;20505;-91
2021/12/17 07:44:49;;;;;;;36.92;12.15;;;8.70;99.90;;;;;;4907038;29;20032;-93
2021/12/17 07:47:14;;;;;;;33.35;11.05;;;8.70;99.90;;;;;;4913719;29;20048;-90
2021/12/17 07:49:40;;;;;;;33.90;11.68;;;8.70;99.90;;;;;;4913083;29;20028;-91
2021/12/17 07:52:06;;;;;;;32.22;12.10;;;8.70;99.90;;;;;;4916062;29;20024;-91
2021/12/17 07:54:31;;;;;;;34.25;12.38;;;8.70;99.90;;;;;;4912962;29;20035;-90
2021/12/17 07:56:57;;;;;;;35.42;11.57;;;8.70;99.90;;;;;;4907242;29;20039;-88
2021/12/17 07:59:24;;;;;;;38.03;12.20;;;8.70;99.90;;;;;;4917931;29;20032;-89
2021/12/17 08:01:50;;;;;;;34.10;12.00;;;8.70;99.90;;;;;;4894089;29;20059;-91
2021/12/17 08:04:15;;;;;;;34.13;11.52;;;8.70;99.90;;;;;;4906355;29;20033;-91
2021/12/17 08:06:41;;;;;;;31.98;11.13;;;8.80;99.90;;;;;;4904565;29;20028;-93
2021/12/17 08:09:07;;;;;;;33.45;11.60;;;8.80;99.90;;;;;;4906060;29;20034;-91
2021/12/17 08:11:38;;;;;;;35.38;11.68;;;8.70;99.90;;;;;;4905580;29;20016;-92
2021/12/17 08:14:09;;;;;;;30.42;10.25;;;8.70;99.90;;;;;;4904360;29;20028;-92
2021/12/17 08:16:43;;;;;;;30.90;11.32;;;8.80;99.90;;;;;;4903883;29;20024;-92
2021/12/17 08:23:20;;;;;;;29.02;10.32;;;8.80;99.90;;;;;;4905077;29;20434;-91
2021/12/17 08:27:25;;;;;;;28.63;9.20;;;8.80;99.90;;;;;;4924068;29;20123;-89
2021/12/17 08:32:17;;;;;;;24.27;8.73;;;8.80;99.90;;;;;;4926730;29;20032;-91
2021/12/17 08:34:43;;;;;;;25.33;9.05;;;8.80;99.90;;;;;;4908263;29;20032;-92
2021/12/17 08:37:10;;;;;;;23.23;7.90;;;8.80;99.90;;;;;;4890273;29;20032;-91
2021/12/17 08:39:38;;;;;;;18.58;7.22;;;8.80;99.90;;;;;;4922017;29;20039;-93
2021/12/17 08:42:05;;;;;;;18.75;6.88;;;8.80;99.90;;;;;;4903742;29;20045;-89
2021/12/17 08:44:31;;;;;;;20.55;7.43;;;8.80;99.90;;;;;;4903320;29;20036;-91
2021/12/17 08:46:57;;;;;;;18.23;6.47;;;8.80;99.90;;;;;;4903057;29;20054;-89
2021/12/17 08:49:22;;;;;;;14.73;5.93;;;8.70;99.90;;;;;;4904807;29;20029;-90
2021/12/17 08:51:48;;;;;;;17.65;6.82;;;8.70;99.90;;;;;;4904584;29;20064;-90
2021/12/17 08:54:14;;;;;;;13.45;5.38;;;8.70;99.90;;;;;;4904487;29;20028;-90
2021/12/17 08:56:49;;;;;;;17.77;6.60;;;8.80;99.90;;;;;;4904463;29;20425;-90
2021/12/17 08:59:16;;;;;;;15.52;6.30;;;8.80;99.90;;;;;;4904933;29;20036;-90
2021/12/17 09:01:44;;;;;;;17.15;5.97;;;8.80;99.90;;;;;;4904851;29;20092;-90
2021/12/17 09:04:10;;;;;;;16.20;6.57;;;8.70;99.90;;;;;;4904458;29;20044;-88
2021/12/17 09:06:36;;;;;;;15.20;6.35;;;8.80;99.90;;;;;;4904958;29;20088;-91
2021/12/17 09:09:03;;;;;;;16.42;6.88;;;8.70;99.90;;;;;;4932066;29;20129;-91
2021/12/17 09:11:30;;;;;;;16.58;6.07;;;8.80;99.90;;;;;;4906807;29;20013;-89
2021/12/17 09:13:58;;;;;;;16.30;6.32;;;8.80;99.90;;;;;;4903802;29;20116;-88
2021/12/17 09:16:24;;;;;;;14.57;6.40;;;8.80;99.90;;;;;;4903452;29;20038;-91
2021/12/17 09:18:52;;;;;;;16.27;6.13;;;8.80;99.90;;;;;;4904349;29;20028;-88
2021/12/17 09:21:18;;;;;;;17.67;7.03;;;8.80;99.90;;;;;;4935463;29;20040;-88
2021/12/17 09:23:45;;;;;;;17.52;6.88;;;8.70;99.90;;;;;;4902533;29;20036;-88
2021/12/17 09:26:12;;;;;;;16.23;6.45;;;8.80;99.90;;;;;;4919845;29;20095;-91
2021/12/17 09:28:38;;;;;;;15.90;6.30;;;8.70;99.90;;;;;;4901830;29;20056;-91
2021/12/17 09:31:05;;;;;;;16.73;6.45;;;8.70;99.90;;;;;;4902545;29;20065;-91
2021/12/17 09:33:32;;;;;;;16.08;6.55;;;8.70;99.90;;;;;;4903266;29;20024;-90
2021/12/17 09:35:58;;;;;;;17.67;6.93;;;8.70;99.90;;;;;;4887253;29;20123;-90
2021/12/17 09:38:24;;;;;;;14.98;6.82;;;8.70;99.90;;;;;;4902490;29;20070;-90
2021/12/17 09:40:50;;;;;;;13.95;5.70;;;8.70;99.90;;;;;;4919461;29;20028;-90
2021/12/17 09:43:16;;;;;;;16.90;6.57;;;8.60;99.90;;;;;;4918154;29;20067;-87
2021/12/17 09:45:42;;;;;;;16.58;5.95;;;8.60;99.90;;;;;;4902502;29;20482;-88
2021/12/17 09:48:08;;;;;;;14.25;6.10;;;8.60;99.90;;;;;;4901921;29;20047;-88
2021/12/17 09:50:34;;;;;;;11.95;5.63;;;8.60;99.90;;;;;;4918542;29;20043;-89
2021/12/17 09:53:00;;;;;;;16.50;6.75;;;8.60;99.90;;;;;;4918401;29;20026;-90
2021/12/17 09:55:26;;;;;;;12.93;5.40;;;8.60;99.90;;;;;;4902977;29;20462;-89
2021/12/17 09:57:53;;;;;;;9.75;4.65;;;8.60;99.90;;;;;;4919950;29;20032;-90
2021/12/17 10:00:22;;;;;;;10.90;5.85;;;8.60;99.90;;;;;;4919555;29;20028;-90
2021/12/17 10:02:49;;;;;;;13.80;5.47;;;8.60;99.90;;;;;;4903289;29;20020;-90
2021/12/17 10:05:19;;;;;;;10.82;5.03;;;8.60;99.90;;;;;;4901604;29;20104;-90
2021/12/17 10:07:47;;;;;;;10.90;5.07;;;8.60;99.90;;;;;;4919277;29;20043;-87
2021/12/17 10:10:15;;;;;;;10.75;4.63;;;8.70;99.90;;;;;;4918729;29;20083;-88
2021/12/17 10:12:42;;;;;;;9.70;4.35;;;8.70;99.90;;;;;;4918436;29;20055;-87
2021/12/17 10:15:17;;;;;;;8.00;4.30;;;8.70;99.90;;;;;;4900857;29;20027;-88
2021/12/17 10:18:02;;;;;;;8.95;4.70;;;8.70;99.90;;;;;;4901152;29;20043;-89
2021/12/17 10:20:42;;;;;;;8.73;4.38;;;8.80;99.90;;;;;;4899315;29;20042;-89
2021/12/17 10:23:11;;;;;;;10.63;5.07;;;8.70;99.90;;;;;;4917535;29;20028;-86
2021/12/17 10:25:42;;;;;;;8.05;4.47;;;8.70;99.90;;;;;;4900996;29;20044;-89
2021/12/17 10:28:08;;;;;;;10.57;5.10;;;8.70;99.90;;;;;;4899956;29;20656;-87
2021/12/17 10:30:37;;;;;;;8.98;4.50;;;8.70;99.90;;;;;;4899654;29;20058;-88
2021/12/17 10:33:06;;;;;;;8.38;4.80;;;8.80;99.90;;;;;;4924960;29;20028;-87
2021/12/17 10:35:43;;;;;;;7.85;4.10;;;8.80;99.90;;;;;;4900440;29;20088;-89
2021/12/17 10:38:13;;;;;;;9.23;4.95;;;8.80;99.90;;;;;;4892962;29;20021;-87
2021/12/17 10:40:48;;;;;;;8.30;4.53;;;8.80;99.90;;;;;;4901082;29;20079;-88
2021/12/17 10:43:28;;;;;;;9.05;4.53;;;8.80;99.90;;;;;;4916513;29;20600;-88
2021/12/17 10:46:02;;;;;;;9.52;5.20;;;8.80;99.90;;;;;;4898743;29;20331;-88
2021/12/17 10:54:15;;;;;;;7.75;3.85;;;8.80;99.90;;;;;;4915468;29;20048;-87
2021/12/17 10:56:47;;;;;;;7.18;3.75;;;8.80;99.90;;;;;;4899156;29;20070;-88
2021/12/17 10:59:18;;;;;;;7.32;3.65;;;8.90;99.90;;;;;;4900029;29;20025;-88
2021/12/17 11:01:47;;;;;;;7.30;3.50;;;9.00;99.90;;;;;;4900187;29;20028;-87
2021/12/17 11:04:23;;;;;;;6.63;3.40;;;9.10;99.90;;;;;;4900125;29;20047;-87
2021/12/17 11:06:49;;;;;;;7.25;3.75;;;9.20;99.90;;;;;;4917365;29;20035;-88
2021/12/17 11:09:39;;;;;;;6.15;3.42;;;9.30;99.90;;;;;;4917844;29;20079;-90
2021/12/17 11:12:13;;;;;;;5.22;2.83;;;9.30;99.90;;;;;;4889325;29;20040;-87
2021/12/17 11:14:40;;;;;;;6.60;3.03;;;9.20;99.90;;;;;;4900351;29;20680;-88
2021/12/17 11:17:13;;;;;;;6.45;2.92;;;9.20;99.90;;;;;;4919863;29;20064;-88
2021/12/17 11:19:40;;;;;;;5.97;2.60;;;9.20;99.90;;;;;;4901968;29;20406;-89
2021/12/17 11:22:07;;;;;;;5.10;2.30;;;9.20;99.90;;;;;;4901023;29;20020;-87
2021/12/17 11:24:35;;;;;;;5.18;2.50;;;9.20;99.90;;;;;;4919167;29;20032;-88
2021/12/17 11:27:02;;;;;;;5.20;2.20;;;9.20;99.90;;;;;;4903522;29;20024;-88
2021/12/17 11:29:29;;;;;;;4.53;2.40;;;9.10;99.90;;;;;;4920551;29;20032;-89
2021/12/17 11:31:54;;;;;;;4.60;2.33;;;9.20;99.90;;;;;;4903075;29;20115;-90
2021/12/17 11:34:21;;;;;;;5.53;2.85;;;9.10;99.90;;;;;;4913358;29;20025;-85
2021/12/17 11:36:47;;;;;;;5.43;2.80;;;9.20;99.90;;;;;;4903000;29;20051;-90
2021/12/17 11:39:48;;;;;;;5.80;2.80;;;9.20;99.90;;;;;;4919383;29;20140;-90
2021/12/17 11:42:19;;;;;;;5.05;2.78;;;9.20;99.90;;;;;;4873918;29;20052;-87
2021/12/17 11:44:53;;;;;;;6.43;2.90;;;9.20;99.90;;;;;;4925132;29;20049;-87
2021/12/17 11:47:20;;;;;;;5.40;2.45;;;9.10;99.90;;;;;;4908145;29;20036;-86
2021/12/17 11:49:52;;;;;;;5.32;2.53;;;9.10;99.90;;;;;;4905823;29;20028;-87
2021/12/17 11:52:39;;;;;;;5.32;3.00;;;9.10;99.90;;;;;;4905713;29;20017;-88
2021/12/17 11:55:25;;;;;;;5.32;2.47;;;9.10;99.90;;;;;;4928972;29;20028;-88
2021/12/17 11:57:58;;;;;;;6.60;3.00;;;9.10;99.90;;;;;;4898750;29;20024;-88
2021/12/17 12:00:25;;;;;;;;;;;9.10;99.90;;;;;;4904511;29;20068;-90
2021/12/17 12:02:54;;;;;;;5.30;2.58;;;9.00;99.90;;;;;;4922416;29;19959;-89
2021/12/17 12:05:38;;;;;;;4.65;2.20;;;9.00;99.90;;;;;;4904725;29;20032;-91
2021/12/17 12:08:22;;;;;;;;;;;9.10;99.90;;;;;;4906705;29;20099;-87
2021/12/17 12:11:08;;;;;;;3.63;1.88;;;8.90;99.90;;;;;;4904498;29;19907;-89
2021/12/17 12:13:40;;;;;;;3.47;1.98;;;8.90;99.90;;;;;;4894862;29;20040;-89
2021/12/17 12:16:08;;;;;;;3.20;1.70;;;9.00;99.90;;;;;;4904348;29;20052;-90
2021/12/17 12:19:07;;;;;;;4.18;1.77;;;9.00;99.90;;;;;;4904692;29;20028;-89
2021/12/17 12:21:39;;;;;;;2.38;1.48;;;8.90;99.90;;;;;;4879344;29;20191;-87
2021/12/17 12:24:09;;;;;;;2.75;1.50;;;8.90;99.90;;;;;;4929674;29;20032;-84
2021/12/17 12:26:42;;;;;;;2.90;1.60;;;9.00;99.90;;;;;;4929636;29;20031;-85
2021/12/17 12:29:11;;;;;;;2.15;1.45;;;9.00;99.90;;;;;;4931227;29;20103;-84
2021/12/17 12:31:38;;;;;;;3.03;1.70;;;9.00;99.90;;;;;;4929563;29;20026;-85
2021/12/17 12:34:13;;;;;;;2.33;1.58;;;9.10;99.90;;;;;;4910867;29;20052;-89
2021/12/17 12:36:48;;;;;;;3.03;1.63;;;9.20;99.90;;;;;;4926681;29;20032;-88
2021/12/17 12:39:21;;;;;;;2.35;1.48;;;9.30;99.90;;;;;;4913083;29;20032;-85
2021/12/17 12:42:01;;;;;;;3.17;1.88;;;9.40;99.90;;;;;;4928888;29;20032;-90
2021/12/17 12:44:40;;;;;;;3.33;1.73;;;9.50;99.90;;;;;;4905460;29;20517;-88
2021/12/17 12:47:07;;;;;;;3.67;1.88;;;9.50;99.90;;;;;;4904852;29;20213;-90
2021/12/17 12:50:34;;;;;;;2.90;1.60;;;9.50;99.90;;;;;;4904632;29;20630;-89
2021/12/17 12:53:11;;;;;;;4.43;2.30;;;9.60;99.90;;;;;;4843704;29;20034;-91
2021/12/17 12:55:48;;;;;;;2.33;1.55;;;9.50;99.90;;;;;;4903418;29;20092;-88
2021/12/17 12:58:24;;;;;;;2.92;1.77;;;9.50;99.90;;;;;;4903816;29;20020;-88
2021/12/17 13:00:57;;;;;;;3.17;1.83;;;9.50;99.90;;;;;;4903854;29;20032;-89
2021/12/17 13:03:30;;;;;;;;;;;9.60;99.90;;;;;;4920843;29;20032;-89
2021/12/17 13:05:59;;;;;;;4.47;1.90;;;9.60;99.90;;;;;;4921781;29;19907;-89
2021/12/17 13:08:26;;;;;;;3.85;1.75;;;9.70;99.90;;;;;;4904720;29;20020;-89
2021/12/17 13:10:54;;;;;;;3.67;1.90;;;9.70;99.90;;;;;;4902738;29;20024;-92
2021/12/17 13:16:43;;;;;;;3.53;2.22;;;9.90;99.90;;;;;;4939366;29;20418;-90
2021/12/17 13:22:14;;;;;;;4.43;2.47;;;9.90;99.90;;;;;;4861801;29;20041;-90
2021/12/17 13:24:39;;;;;;;3.28;2.30;;;9.90;99.90;;;;;;4890335;29;20557;-88
2021/12/17 13:27:10;;;;;;;3.33;2.22;;;9.80;99.90;;;;;;4922157;29;20028;-91
2021/12/17 13:29:38;;;;;;;3.35;2.17;;;9.80;99.90;;;;;;4912683;29;20051;-91
2021/12/17 13:32:05;;;;;;;3.63;2.50;;;9.70;99.90;;;;;;4902745;29;20028;-89
2021/12/17 13:34:36;;;;;;;2.92;2.10;;;9.70;99.90;;;;;;4891676;29;20119;-89
2021/12/17 13:37:24;;;;;;;2.90;2.10;;;9.70;99.90;;;;;;4901906;29;20020;-88
2021/12/17 13:40:07;;;;;;;3.60;2.58;;;9.70;99.90;;;;;;4889515;29;20039;-89
2021/12/17 13:42:42;;;;;;;3.05;2.15;;;9.60;99.90;;;;;;4906985;29;20069;-91
2021/12/17 13:45:14;;;;;;;3.92;2.30;;;9.60;99.90;;;;;;4905949;29;20044;-87
2021/12/17 13:47:41;;;;;;;4.22;2.72;;;9.60;99.90;;;;;;4914175;29;20052;-90
2021/12/17 13:50:06;;;;;;;3.22;2.35;;;9.60;99.90;;;;;;4913740;29;20032;-91
2021/12/17 13:52:35;;;;;;;3.08;2.22;;;9.60;99.90;;;;;;4915836;29;20095;-88
2021/12/17 13:55:05;;;;;;;3.97;2.30;;;9.50;99.90;;;;;;4926812;29;20081;-87
2021/12/17 13:57:33;;;;;;;4.35;2.50;;;9.50;99.90;;;;;;4911460;29;20024;-90
2021/12/17 14:00:14;;;;;;;3.58;2.40;;;9.50;99.90;;;;;;4905405;29;20040;-91
2021/12/17 14:02:41;;;;;;;6.22;2.80;;;9.60;99.90;;;;;;4889516;29;20039;-92
2021/12/17 14:05:25;;;;;;;3.35;2.38;;;9.50;99.90;;;;;;4904619;29;20040;-92
2021/12/17 14:07:52;;;;;;;3.90;2.42;;;9.50;99.90;;;;;;4903731;29;20035;-91
2021/12/17 14:10:21;;;;;;;4.40;2.80;;;9.50;99.90;;;;;;4903581;29;20012;-91
2021/12/17 14:12:47;;;;;;;3.53;2.50;;;9.50;99.90;;;;;;4903688;29;20542;-89
2021/12/17 14:15:20;;;;;;;5.82;2.83;;;9.50;99.90;;;;;;4902758;29;20024;-90
2021/12/17 14:17:54;;;;;;;3.15;2.20;;;9.50;99.90;;;;;;4904837;29;20096;-88
2021/12/17 14:20:25;;;;;;;4.95;3.00;;;9.50;99.90;;;;;;4904925;29;20063;-92
2021/12/17 14:22:55;;;;;;;4.40;2.88;;;9.50;99.90;;;;;;4904431;29;20032;-92
2021/12/17 14:25:39;;;;;;;4.40;2.80;;;9.50;99.90;;;;;;4907778;29;20375;-90
2021/12/17 14:28:25;;;;;;;4.43;3.00;;;9.50;99.90;;;;;;4902971;29;20029;-91
2021/12/17 14:31:12;;;;;;;3.70;2.65;;;9.50;99.90;;;;;;4903174;29;20036;-92
2021/12/17 14:33:51;;;;;;;3.78;2.80;;;9.40;99.90;;;;;;4904778;29;20067;-91
2021/12/17 14:36:29;;;;;;;4.00;2.75;;;9.40;99.90;;;;;;4902304;29;20024;-91
2021/12/17 14:39:04;;;;;;;4.45;3.15;;;9.40;99.90;;;;;;4902220;29;20024;-90
2021/12/17 14:41:44;;;;;;;4.68;3.58;;;9.40;99.90;;;;;;4902361;29;20030;-92
2021/12/17 14:44:34;;;;;;;4.53;3.55;;;9.40;99.90;;;;;;4902608;29;20032;-91
2021/12/17 15:00:50;;;;;;;5.70;3.67;;;9.30;99.90;;;;;;4916492;29;20044;-90
2021/12/17 15:03:40;;;;;;;5.97;4.30;;;9.30;99.90;;;;;;4893383;29;20024;-89
2021/12/17 15:06:05;;;;;;;5.70;3.97;;;9.30;99.90;;;;;;4900151;29;20079;-91
2021/12/17 15:08:32;;;;;;;5.90;3.75;;;9.20;99.90;;;;;;4899082;29;20056;-91
2021/12/17 15:10:59;;;;;;;4.60;3.47;;;9.30;99.90;;;;;;4920808;29;20024;-90
2021/12/17 15:13:26;;;;;;;6.25;3.85;;;9.20;99.90;;;;;;4913359;29;20040;-92
2021/12/17 15:15:54;;;;;;;5.22;3.60;;;9.20;99.90;;;;;;4911972;29;20380;-91
2021/12/17 15:18:20;;;;;;;6.50;4.30;;;9.30;99.90;;;;;;4915436;29;20023;-90
2021/12/17 15:20:52;;;;;;;6.03;3.60;;;9.20;99.90;;;;;;4922377;29;20035;-90
2021/12/17 15:24:34;;;;;;;;;;;;;;;;;;;;;
2021/12/17 15:26:48;;;;;;;5.63;3.20;;;9.30;99.90;;;;;;4898893;29;20040;-91
2021/12/17 15:29:14;;;;;;;5.45;3.80;;;9.20;99.90;;;;;;4911320;29;20456;-94
2021/12/17 15:31:40;;;;;;;6.93;4.35;;;9.30;99.90;;;;;;4926729;29;20028;-92
2021/12/17 15:34:08;;;;;;;5.05;3.72;;;9.20;99.90;;;;;;4926813;29;20483;-94
2021/12/17 15:36:34;;;;;;;6.30;3.88;;;9.20;99.90;;;;;;4912850;29;20028;-94
2021/12/17 15:38:59;;;;;;;6.38;3.72;;;9.20;99.90;;;;;;4935834;29;20095;-94
2021/12/17 15:41:25;;;;;;;5.25;3.65;;;9.20;99.90;;;;;;4933519;28;20008;-93
2021/12/17 15:43:51;;;;;;;5.18;3.67;;;9.20;99.90;;;;;;4938686;29;20047;-93
2021/12/17 15:46:18;;;;;;;5.65;4.30;;;9.20;99.90;;;;;;4955805;28;20004;-95
2021/12/17 15:48:45;;;;;;;5.57;3.97;;;9.20;99.90;;;;;;4947239;28;20054;-93
2021/12/17 15:51:10;;;;;;;6.03;4.30;;;9.20;99.90;;;;;;4930771;28;20032;-92
2021/12/17 15:53:36;;;;;;;7.97;5.30;;;9.20;99.90;;;;;;4941006;29;20039;-94
2021/12/17 15:56:02;;;;;;;8.00;5.55;;;9.20;99.90;;;;;;4923829;29;20021;-93
2021/12/17 15:58:28;;;;;;;6.57;4.68;;;9.20;99.90;;;;;;4925007;29;20130;-89
2021/12/17 16:00:54;;;;;;;7.95;5.93;;;9.20;99.90;;;;;;4925064;29;20020;-93
2021/12/17 16:03:26;;;;;;;8.35;5.28;;;9.20;99.90;;;;;;4937901;29;20020;-91
2021/12/17 16:05:55;;;;;;;8.13;6.07;;;9.20;99.90;;;;;;4906286;29;20016;-89
2021/12/17 16:08:20;;;;;;;8.32;6.22;;;9.20;99.90;;;;;;4904826;29;20036;-92
2021/12/17 16:21:40;;;;;;;9.38;5.70;;;9.10;99.90;;;;;;4923133;29;20124;-92
2021/12/17 16:24:06;;;;;;;8.25;5.88;;;9.10;99.90;;;;;;4907074;29;20048;-90
2021/12/17 16:26:33;;;;;;;8.07;5.45;;;9.10;99.90;;;;;;4906725;29;20040;-90
2021/12/17 16:28:58;;;;;;;8.82;6.22;;;9.10;99.90;;;;;;4905721;29;20068;-91